createdAt,value
2022-11-05T00:01:22.563Z,99712.20
2022-11-05T00:06:44.554Z,99722.80
2022-11-05T00:12:06.603Z,99726.80
2022-11-05T00:17:09.811Z,99720.60
2022-11-05T00:22:31.761Z,99710.60
2022-11-05T00:27:34.874Z,99707.80
2022-11-05T00:32:38.822Z,99704.20
2022-11-05T00:37:48.747Z,99687.00
2022-11-05T00:43:12.078Z,99687.40
2022-11-05T00:48:34.735Z,99684.20
2022-11-05T00:53:37.910Z,99683.40
2022-11-05T00:58:41.031Z,99678.00
2022-11-05T01:03:48.814Z,99676.00
2022-11-05T01:08:56.340Z,99669.80
2022-11-05T01:14:09.306Z,99664.00
2022-11-05T01:19:12.898Z,99654.80
2022-11-05T01:24:16.002Z,99659.80
2022-11-05T01:29:19.110Z,99653.00
2022-11-05T01:34:22.350Z,99651.40
2022-11-05T01:39:25.629Z,99646.40
2022-11-05T01:44:52.494Z,99641.60
2022-11-05T01:49:59.796Z,99633.80
2022-11-05T01:55:05.621Z,99634.00
2022-11-05T02:00:09.800Z,99626.60
2022-11-05T02:05:14.954Z,99618.20
2022-11-05T02:10:19.262Z,99614.80
2022-11-05T02:15:55.266Z,99621.60
2022-11-05T02:21:30.017Z,99636.60
2022-11-05T02:26:48.376Z,99631.80
2022-11-05T02:32:29.705Z,99626.00
2022-11-05T02:37:53.060Z,99626.20
2022-11-05T02:43:43.759Z,99630.20
2022-11-05T02:49:20.783Z,99630.60
2022-11-05T02:54:43.355Z,99632.00
2022-11-05T02:59:46.454Z,99629.20
2022-11-05T03:04:49.557Z,99633.80
2022-11-05T03:10:20.721Z,99643.20
2022-11-05T03:15:36.041Z,99648.40
2022-11-05T03:21:17.923Z,99647.60
2022-11-05T03:26:30.912Z,99655.40
2022-11-05T03:31:37.332Z,99651.60
2022-11-05T03:36:53.269Z,99649.00
2022-11-05T03:41:58.766Z,99648.60
2022-11-05T03:47:09.096Z,99642.40
2022-11-05T03:52:21.431Z,99631.60
2022-11-05T03:57:31.691Z,99634.80
2022-11-05T04:02:35.287Z,99636.00
2022-11-05T04:07:57.358Z,99635.40
2022-11-05T04:13:19.408Z,99635.20
2022-11-05T04:18:23.031Z,99646.40
2022-11-05T04:23:44.880Z,99645.00
2022-11-05T04:29:07.955Z,99625.40
2022-11-05T04:34:11.266Z,99640.20
2022-11-05T04:39:14.485Z,99633.80
2022-11-05T04:44:17.676Z,99641.80
2022-11-05T04:49:20.785Z,99637.80
2022-11-05T04:54:23.886Z,99637.80
2022-11-05T04:59:27.094Z,99646.80
2022-11-05T05:04:30.307Z,99656.00
2022-11-05T05:09:33.419Z,99654.00
2022-11-05T05:14:36.517Z,99661.40
2022-11-05T05:19:58.361Z,99674.20
2022-11-05T05:25:01.686Z,99683.40
2022-11-05T05:30:05.679Z,99695.40
2022-11-05T05:35:09.917Z,99703.60
2022-11-05T05:40:13.037Z,99709.60
2022-11-05T05:45:16.262Z,99707.00
2022-11-05T05:50:19.359Z,99699.40
2022-11-05T05:55:22.485Z,99710.40
2022-11-05T06:00:25.676Z,99706.60
2022-11-05T06:05:29.082Z,99718.80
2022-11-05T06:10:32.466Z,99737.00
2022-11-05T06:15:36.179Z,99737.80
2022-11-05T06:20:39.835Z,99757.60
2022-11-05T06:25:42.942Z,99748.60
2022-11-05T06:30:52.157Z,99740.40
2022-11-05T06:35:59.043Z,99744.60
2022-11-05T06:41:09.799Z,99736.40
2022-11-05T06:46:14.002Z,99745.20
2022-11-05T06:51:17.108Z,99764.20
2022-11-05T06:56:20.317Z,99765.40
2022-11-05T07:01:23.583Z,99772.00
2022-11-05T07:06:29.402Z,99778.80
2022-11-05T07:11:34.250Z,99781.00
2022-11-05T07:16:37.463Z,99776.60
2022-11-05T07:21:41.378Z,99786.80
2022-11-05T07:26:44.588Z,99796.80
2022-11-05T07:31:47.792Z,99809.00
2022-11-05T07:36:51.001Z,99809.20
2022-11-05T07:41:55.229Z,99812.40
2022-11-05T07:46:58.347Z,99816.80
2022-11-05T07:52:01.584Z,99820.60
2022-11-05T07:57:04.768Z,99830.80
2022-11-05T08:02:11.575Z,99831.40
2022-11-05T08:07:14.863Z,99847.40
2022-11-05T08:12:17.909Z,99854.80
2022-11-05T08:17:21.282Z,99856.60
2022-11-05T08:22:24.491Z,99863.60
2022-11-05T08:27:28.014Z,99867.20
2022-11-05T08:32:31.419Z,99873.20
2022-11-05T08:37:34.750Z,99880.60
2022-11-05T08:42:38.042Z,99889.40
2022-11-05T08:47:41.193Z,99891.60
2022-11-05T08:52:44.358Z,99896.00
2022-11-05T08:57:47.774Z,99904.40
2022-11-05T09:02:50.884Z,99903.60
2022-11-05T09:08:00.498Z,99909.80
2022-11-05T09:13:04.875Z,99903.80
2022-11-05T09:18:14.105Z,99914.80
2022-11-05T09:23:17.844Z,99924.20
2022-11-05T09:28:23.800Z,99924.40
2022-11-05T09:33:27.076Z,99926.40
2022-11-05T09:38:31.578Z,99931.40
2022-11-05T09:43:47.912Z,99952.60
2022-11-05T09:49:06.979Z,99948.60
2022-11-05T09:54:14.933Z,99947.60
2022-11-05T09:59:26.480Z,99953.40
2022-11-05T10:04:33.886Z,99966.00
2022-11-05T10:09:47.971Z,99966.60
2022-11-05T10:15:21.982Z,99973.20
2022-11-05T10:20:35.724Z,99977.80
2022-11-05T10:25:45.480Z,99978.80
2022-11-05T10:30:56.879Z,99980.40
2022-11-05T10:36:08.109Z,99989.00
2022-11-05T10:41:40.491Z,99994.40
2022-11-05T10:47:21.666Z,100008.20
2022-11-05T10:52:27.572Z,100015.60
2022-11-05T10:57:40.870Z,100018.20
2022-11-05T11:03:01.129Z,100031.20
2022-11-05T11:08:24.304Z,100034.60
2022-11-05T11:13:48.508Z,100049.00
2022-11-05T11:19:01.232Z,100051.60
2022-11-05T11:24:07.169Z,100056.80
2022-11-05T11:29:26.276Z,100057.40
2022-11-05T11:34:39.073Z,100060.40
2022-11-05T11:39:49.171Z,100073.60
2022-11-05T11:44:52.713Z,100085.60
2022-11-05T11:49:59.582Z,100084.00
2022-11-05T11:55:11.612Z,100080.20
2022-11-05T12:00:17.659Z,100072.00
2022-11-05T12:05:54.712Z,100076.40
2022-11-05T12:11:46.634Z,100094.60
2022-11-05T12:17:20.465Z,100090.80
2022-11-05T12:23:12.272Z,100079.40
2022-11-05T12:29:04.456Z,100085.80
2022-11-05T12:34:13.105Z,100085.40
2022-11-05T12:39:48.875Z,100086.80
2022-11-05T12:45:01.650Z,100097.00
2022-11-05T12:50:24.930Z,100109.80
2022-11-05T12:55:48.085Z,100112.80
2022-11-05T13:01:09.875Z,100117.20
2022-11-05T13:06:30.586Z,100129.20
2022-11-05T13:12:05.307Z,100140.40
2022-11-05T13:17:39.612Z,100139.80
2022-11-05T13:22:48.760Z,100137.20
2022-11-05T13:28:19.970Z,100146.40
2022-11-05T13:33:31.952Z,100152.20
2022-11-05T13:38:54.202Z,100163.00
2022-11-05T13:44:24.884Z,100173.00
2022-11-05T13:49:40.052Z,100186.20
2022-11-05T13:54:51.948Z,100198.20
2022-11-05T14:00:17.592Z,100199.80
2022-11-05T14:05:42.497Z,100208.20
2022-11-05T14:11:18.683Z,100212.00
2022-11-05T14:16:25.985Z,100215.00
2022-11-05T14:21:50.313Z,100228.60
2022-11-05T14:27:02.819Z,100239.20
2022-11-05T14:32:20.870Z,100246.60
2022-11-05T14:37:33.092Z,100251.60
2022-11-05T14:42:37.632Z,100267.00
2022-11-05T14:48:01.932Z,100266.80
2022-11-05T14:53:37.501Z,100268.40
2022-11-05T14:58:43.563Z,100267.60
2022-11-05T15:04:18.375Z,100272.60
2022-11-05T15:09:40.683Z,100266.00
2022-11-05T15:15:00.561Z,100271.40
2022-11-05T15:20:06.764Z,100274.40
2022-11-05T15:25:57.174Z,100276.20
2022-11-05T15:31:39.647Z,100284.40
2022-11-05T15:37:02.822Z,100284.80
2022-11-05T15:42:19.609Z,100283.20
2022-11-05T15:47:25.796Z,100282.60
2022-11-05T15:52:42.525Z,100281.40
2022-11-05T15:58:01.018Z,100292.00
2022-11-05T16:03:24.908Z,100290.00
2022-11-05T16:08:30.793Z,100300.80
2022-11-05T16:13:41.170Z,100309.00
2022-11-05T16:18:45.986Z,100317.20
2022-11-05T16:23:49.276Z,100326.60
2022-11-05T16:28:53.819Z,100351.40
2022-11-05T16:33:58.670Z,100367.40
2022-11-05T16:39:01.975Z,100375.80
2022-11-05T16:44:05.402Z,100384.80
2022-11-05T16:49:12.690Z,100384.40
2022-11-05T16:54:15.702Z,100383.00
2022-11-05T16:59:19.013Z,100385.00
2022-11-05T17:04:22.110Z,100393.40
2022-11-05T17:09:25.333Z,100402.40
2022-11-05T17:14:28.837Z,100402.20
2022-11-05T17:19:32.392Z,100414.00
2022-11-05T17:24:35.665Z,100415.60
2022-11-05T17:29:38.915Z,100420.80
2022-11-05T17:34:41.980Z,100426.80
2022-11-05T17:39:45.125Z,100432.00
2022-11-05T17:44:48.294Z,100439.20
2022-11-05T17:49:51.504Z,100450.00
2022-11-05T17:54:54.653Z,100455.40
2022-11-05T17:59:57.818Z,100465.00
2022-11-05T18:05:01.033Z,100471.40
2022-11-05T18:10:05.870Z,100474.40
2022-11-05T18:15:10.013Z,100478.00
2022-11-05T18:20:19.215Z,100479.60
2022-11-05T18:25:23.098Z,100478.40
2022-11-05T18:30:26.412Z,100482.20
2022-11-05T18:35:29.918Z,100494.20
2022-11-05T18:40:33.014Z,100501.20
2022-11-05T18:45:36.135Z,100507.00
2022-11-05T18:50:40.356Z,100508.00
2022-11-05T18:55:43.698Z,100512.20
2022-11-05T19:00:47.171Z,100511.60
2022-11-05T19:05:50.282Z,100516.60
2022-11-05T19:10:53.592Z,100520.80
2022-11-05T19:15:56.802Z,100522.20
2022-11-05T19:21:00.011Z,100525.60
2022-11-05T19:26:11.565Z,100524.60
2022-11-05T19:31:20.235Z,100531.40
2022-11-05T19:36:24.485Z,100532.00
2022-11-05T19:41:28.973Z,100532.00
2022-11-05T19:46:32.693Z,100538.60
2022-11-05T19:51:36.055Z,100545.20
2022-11-05T19:56:39.467Z,100544.60
2022-11-05T20:01:45.207Z,100553.60
2022-11-05T20:06:48.674Z,100545.20
2022-11-05T20:11:54.748Z,100560.00
2022-11-05T20:16:58.259Z,100557.60
2022-11-05T20:22:01.760Z,100564.80
2022-11-05T20:27:05.182Z,100564.40
2022-11-05T20:32:09.573Z,100566.80
2022-11-05T20:37:12.818Z,100570.60
2022-11-05T20:42:15.961Z,100571.40
2022-11-05T20:47:19.132Z,100578.20
2022-11-05T20:52:22.148Z,100569.60
2022-11-05T20:57:25.345Z,100568.80
2022-11-05T21:02:28.831Z,100576.60
2022-11-05T21:07:32.209Z,100576.40
2022-11-05T21:12:35.381Z,100580.80
2022-11-05T21:17:39.734Z,100589.40
2022-11-05T21:22:45.589Z,100593.00
2022-11-05T21:27:48.805Z,100601.60
2022-11-05T21:32:52.926Z,100599.80
2022-11-05T21:37:56.133Z,100598.80
2022-11-05T21:42:59.344Z,100602.80
2022-11-05T21:48:02.858Z,100604.40
2022-11-05T21:53:24.906Z,100604.00
2022-11-05T21:58:46.965Z,100608.20
2022-11-05T22:03:50.083Z,100606.20
2022-11-05T22:08:53.275Z,100610.60
2022-11-05T22:13:56.378Z,100612.60
2022-11-05T22:19:00.042Z,100615.80
2022-11-05T22:24:03.720Z,100619.20
2022-11-05T22:29:07.848Z,100621.80
2022-11-05T22:34:12.079Z,100622.60
2022-11-05T22:39:15.706Z,100628.00
2022-11-05T22:44:18.803Z,100634.80
2022-11-05T22:49:22.523Z,100635.00
2022-11-05T22:54:25.738Z,100638.40
2022-11-05T22:59:29.052Z,100642.00
2022-11-05T23:04:32.281Z,100644.40
2022-11-05T23:09:54.506Z,100646.40
2022-11-05T23:15:01.292Z,100650.20
2022-11-05T23:20:30.116Z,100651.80
2022-11-05T23:25:33.316Z,100653.20
2022-11-05T23:31:00.794Z,100654.40
2022-11-05T23:36:42.645Z,100660.80
2022-11-05T23:42:04.592Z,100658.00
2022-11-05T23:47:27.052Z,100667.60
2022-11-05T23:52:30.223Z,100663.20
2022-11-05T23:57:33.248Z,100663.40
